createdAt,value
2019-01-11T00:00:32.748Z,51.40
2019-01-11T00:02:59.928Z,51.30
2019-01-11T00:05:27.158Z,51.20
2019-01-11T00:07:54.330Z,50.90
2019-01-11T00:10:21.591Z,50.80
2019-01-11T00:15:05.537Z,50.10
2019-01-11T00:17:32.810Z,50.40
2019-01-11T00:20:03.742Z,50.30
2019-01-11T00:22:29.707Z,50.40
2019-01-11T00:24:56.955Z,50.30
2019-01-11T00:27:24.073Z,50.30
2019-01-11T00:29:51.335Z,50.30
2019-01-11T00:32:18.467Z,50.20
2019-01-11T00:34:45.615Z,50.10
2019-01-11T00:37:12.849Z,50.70
2019-01-11T00:39:40.002Z,50.10
2019-01-11T00:42:07.267Z,50.30
2019-01-11T00:44:34.511Z,50.30
2019-01-11T00:47:01.737Z,50.80
2019-01-11T00:49:28.955Z,50.00
2019-01-11T00:51:56.085Z,50.10
2019-01-11T00:54:23.309Z,50.20
2019-01-11T00:56:50.463Z,50.20
2019-01-11T00:59:17.699Z,50.40
2019-01-11T01:01:44.959Z,50.40
2019-01-11T01:04:12.211Z,50.30
2019-01-11T01:06:39.317Z,50.40
2019-01-11T01:09:08.034Z,50.30
2019-01-11T01:11:35.362Z,51.70
2019-01-11T01:14:02.627Z,50.90
2019-01-11T01:16:29.965Z,50.00
2019-01-11T01:18:57.113Z,50.50
2019-01-11T01:21:24.333Z,50.10
2019-01-11T01:23:51.585Z,50.10
2019-01-11T01:26:18.814Z,50.20
2019-01-11T01:28:46.080Z,49.90
2019-01-11T01:31:13.302Z,50.00
2019-01-11T01:33:40.455Z,50.10
2019-01-11T01:36:07.579Z,50.00
2019-01-11T01:38:34.732Z,50.00
2019-01-11T01:41:01.970Z,50.00
2019-01-11T01:43:29.226Z,50.20
2019-01-11T01:45:56.456Z,51.20
2019-01-11T01:48:26.222Z,50.20
2019-01-11T01:50:53.464Z,50.50
2019-01-11T01:53:20.696Z,50.20
2019-01-11T01:55:47.860Z,50.20
2019-01-11T01:58:15.099Z,50.30
2019-01-11T02:00:42.349Z,50.20
2019-01-11T02:03:09.476Z,51.20
2019-01-11T02:05:36.732Z,50.30
2019-01-11T02:08:04.034Z,50.90
2019-01-11T02:10:31.151Z,50.50
2019-01-11T02:12:58.414Z,50.50
2019-01-11T02:15:25.654Z,50.50
2019-01-11T02:17:52.813Z,50.50
2019-01-11T02:20:20.055Z,51.20
2019-01-11T02:22:47.201Z,50.40
2019-01-11T02:25:14.696Z,50.40
2019-01-11T02:27:41.957Z,50.40
2019-01-11T02:30:12.899Z,50.20
2019-01-11T02:32:40.163Z,50.20
2019-01-11T02:35:07.486Z,50.30
2019-01-11T02:37:34.712Z,50.30
2019-01-11T02:40:02.005Z,50.10
2019-01-11T02:42:29.326Z,50.20
2019-01-11T02:44:56.607Z,50.10
2019-01-11T02:47:23.839Z,50.00
2019-01-11T02:49:50.989Z,50.10
2019-01-11T02:52:18.133Z,50.10
2019-01-11T02:54:45.283Z,50.20
2019-01-11T02:57:12.507Z,51.00
2019-01-11T02:59:39.626Z,50.40
2019-01-11T03:02:06.865Z,50.00
2019-01-11T03:04:34.014Z,50.10
2019-01-11T03:07:01.149Z,50.00
2019-01-11T03:09:28.310Z,49.60
2019-01-11T03:11:55.637Z,49.50
2019-01-11T03:14:22.811Z,49.50
2019-01-11T03:16:49.945Z,49.70
2019-01-11T03:19:17.193Z,50.00
2019-01-11T03:21:44.433Z,49.80
2019-01-11T03:24:11.657Z,50.10
2019-01-11T03:26:38.932Z,49.80
2019-01-11T03:29:06.072Z,49.40
2019-01-11T03:31:36.102Z,49.50
2019-01-11T03:34:03.772Z,51.10
2019-01-11T03:36:31.023Z,49.60
2019-01-11T03:38:58.258Z,49.60
2019-01-11T03:41:25.810Z,49.60
2019-01-11T03:43:53.060Z,49.60
2019-01-11T03:46:20.334Z,51.00
2019-01-11T03:48:47.573Z,51.30
2019-01-11T03:51:14.710Z,49.60
2019-01-11T03:53:41.906Z,49.70
2019-01-11T03:56:09.161Z,49.90
2019-01-11T03:58:36.301Z,50.10
2019-01-11T04:01:03.680Z,49.90
2019-01-11T04:03:30.896Z,50.00
2019-01-11T04:05:58.044Z,50.00
2019-01-11T04:08:25.276Z,50.00
2019-01-11T04:10:52.613Z,50.00
2019-01-11T04:13:19.772Z,50.20
2019-01-11T04:15:47.012Z,50.40
2019-01-11T04:18:29.953Z,50.60
2019-01-11T04:20:57.182Z,50.90
2019-01-11T04:23:24.447Z,50.60
2019-01-11T04:25:51.577Z,50.60
2019-01-11T04:28:18.728Z,50.60
2019-01-11T04:30:45.967Z,50.70
2019-01-11T04:33:13.235Z,50.80
2019-01-11T04:35:40.367Z,52.10
2019-01-11T04:38:07.527Z,50.80
2019-01-11T04:40:34.700Z,51.20
2019-01-11T04:43:02.032Z,50.90
2019-01-11T04:45:29.160Z,50.80
2019-01-11T04:47:56.422Z,52.10
2019-01-11T04:50:23.581Z,50.70
2019-01-11T04:52:50.820Z,50.80
2019-01-11T04:55:18.088Z,50.70
2019-01-11T04:57:45.331Z,50.70
2019-01-11T05:00:15.819Z,50.80
2019-01-11T05:02:43.048Z,50.80
2019-01-11T05:05:10.301Z,50.40
2019-01-11T05:07:37.518Z,50.80
2019-01-11T05:10:05.125Z,51.10
2019-01-11T05:12:32.251Z,50.80
2019-01-11T05:14:59.528Z,50.70
2019-01-11T05:17:26.752Z,50.80
2019-01-11T05:19:53.995Z,50.80
2019-01-11T05:22:21.145Z,50.70
2019-01-11T05:24:48.263Z,50.00
2019-01-11T05:27:15.513Z,50.70
2019-01-11T05:29:42.765Z,50.70
2019-01-11T05:32:10.021Z,50.70
2019-01-11T05:34:37.138Z,50.60
2019-01-11T05:37:04.344Z,50.60
2019-01-11T05:39:31.495Z,50.60
2019-01-11T05:41:58.607Z,50.60
2019-01-11T05:44:25.752Z,50.70
2019-01-11T05:46:52.909Z,51.80
2019-01-11T05:49:20.146Z,50.60
2019-01-11T05:51:47.386Z,50.50
2019-01-11T05:54:14.622Z,50.60
2019-01-11T05:56:41.778Z,50.60
2019-01-11T05:59:09.586Z,50.50
2019-01-11T06:01:36.819Z,50.70
2019-01-11T06:04:23.411Z,50.20
2019-01-11T06:07:06.940Z,50.10
2019-01-11T06:09:34.145Z,50.30
2019-01-11T06:12:01.300Z,50.20
2019-01-11T06:14:28.459Z,50.70
2019-01-11T06:16:55.718Z,50.50
2019-01-11T06:19:22.881Z,51.20
2019-01-11T06:21:50.095Z,50.50
2019-01-11T06:24:17.347Z,51.20
2019-01-11T06:26:44.577Z,50.60
2019-01-11T06:29:11.837Z,50.70
2019-01-11T06:31:39.113Z,50.60
2019-01-11T06:34:06.238Z,50.60
2019-01-11T06:36:33.403Z,50.50
2019-01-11T06:39:00.547Z,50.70
2019-01-11T06:41:37.047Z,50.60
2019-01-11T06:44:04.202Z,50.60
2019-01-11T06:46:31.483Z,50.70
2019-01-11T06:48:58.741Z,50.80
2019-01-11T06:51:26.025Z,52.10
2019-01-11T06:53:53.290Z,50.90
2019-01-11T06:56:20.536Z,50.90
2019-01-11T06:58:47.769Z,50.80
2019-01-11T07:01:14.906Z,50.90
2019-01-11T07:03:42.132Z,50.90
2019-01-11T07:06:09.402Z,50.90
2019-01-11T07:08:36.631Z,51.10
2019-01-11T07:11:03.888Z,51.00
2019-01-11T07:13:31.170Z,49.60
2019-01-11T07:15:58.339Z,51.10
2019-01-11T07:18:25.566Z,51.10
2019-01-11T07:20:52.817Z,51.20
2019-01-11T07:23:20.037Z,51.70
2019-01-11T07:25:47.794Z,51.20
2019-01-11T07:28:15.276Z,51.60
2019-01-11T07:30:59.443Z,51.50
2019-01-11T07:33:26.702Z,51.10
2019-01-11T07:36:04.882Z,50.90
2019-01-11T07:38:32.174Z,50.70
2019-01-11T07:40:59.415Z,50.70
2019-01-11T07:43:26.701Z,50.70
2019-01-11T07:45:53.946Z,50.60
2019-01-11T07:48:21.182Z,50.60
2019-01-11T07:50:49.452Z,50.60
2019-01-11T07:53:16.764Z,50.70
2019-01-11T07:55:43.935Z,51.60
2019-01-11T07:58:11.168Z,50.70
2019-01-11T08:00:38.414Z,50.90
2019-01-11T08:03:05.671Z,50.70
2019-01-11T08:05:32.930Z,50.50
2019-01-11T08:08:00.174Z,50.60
2019-01-11T08:10:27.431Z,50.80
2019-01-11T08:12:54.684Z,51.40
2019-01-11T08:15:21.952Z,50.10
2019-01-11T08:17:49.244Z,50.10
2019-01-11T08:20:16.576Z,50.10
2019-01-11T08:22:43.730Z,50.00
2019-01-11T08:25:11.678Z,51.10
2019-01-11T08:27:39.125Z,50.90
2019-01-11T08:30:09.662Z,50.00
2019-01-11T08:32:36.799Z,50.00
2019-01-11T08:35:06.676Z,49.90
2019-01-11T08:37:34.089Z,49.80
2019-01-11T08:40:01.253Z,49.70
2019-01-11T08:44:55.503Z,49.00
2019-01-11T08:47:22.669Z,49.30
2019-01-11T08:49:49.899Z,49.30
2019-01-11T08:52:17.161Z,49.40
2019-01-11T08:54:44.395Z,49.60
2019-01-11T08:57:11.659Z,49.60
2019-01-11T08:59:38.925Z,50.20
2019-01-11T09:02:06.077Z,49.60
2019-01-11T09:04:33.247Z,49.70
2019-01-11T09:07:00.587Z,49.40
2019-01-11T09:09:27.771Z,49.40
2019-01-11T09:11:55.097Z,49.40
2019-01-11T09:14:40.245Z,49.40
2019-01-11T09:17:13.319Z,49.30
2019-01-11T09:19:40.594Z,49.70
2019-01-11T09:22:07.829Z,49.60
2019-01-11T09:24:35.079Z,49.30
2019-01-11T09:27:02.217Z,49.20
2019-01-11T09:29:29.457Z,49.40
2019-01-11T09:31:57.660Z,50.10
2019-01-11T09:34:25.017Z,49.20
2019-01-11T09:36:52.340Z,48.80
2019-01-11T09:39:19.615Z,49.10
2019-01-11T09:41:46.778Z,48.80
2019-01-11T09:44:14.025Z,49.00
2019-01-11T09:46:41.285Z,49.10
2019-01-11T09:49:11.939Z,50.20
2019-01-11T09:51:39.264Z,49.20
2019-01-11T09:54:06.611Z,49.40
2019-01-11T09:56:33.738Z,49.40
2019-01-11T09:59:01.026Z,49.60
2019-01-11T10:01:28.155Z,49.70
2019-01-11T10:03:55.418Z,49.80
2019-01-11T10:06:22.663Z,50.10
2019-01-11T10:08:49.860Z,50.00
2019-01-11T10:11:17.049Z,49.90
2019-01-11T10:13:44.295Z,50.00
2019-01-11T10:16:11.565Z,49.90
2019-01-11T10:18:38.691Z,49.70
2019-01-11T10:21:05.932Z,49.60
2019-01-11T10:23:33.184Z,49.70
2019-01-11T10:26:00.437Z,49.60
2019-01-11T10:28:27.586Z,49.50
2019-01-11T10:31:00.581Z,49.00
2019-01-11T10:33:24.004Z,48.50
2019-01-11T10:35:51.402Z,48.00
2019-01-11T10:38:18.640Z,47.90
2019-01-11T10:40:45.852Z,47.90
2019-01-11T10:43:13.094Z,47.70
2019-01-11T10:45:40.368Z,48.20
2019-01-11T10:48:07.618Z,48.10
2019-01-11T10:50:34.754Z,47.40
2019-01-11T10:53:01.938Z,47.30
2019-01-11T10:55:29.183Z,47.30
2019-01-11T10:57:56.239Z,47.20
2019-01-11T11:00:24.975Z,48.70
2019-01-11T11:02:52.797Z,47.30
2019-01-11T11:05:20.417Z,48.10
2019-01-11T11:07:47.912Z,47.30
2019-01-11T11:10:15.298Z,47.20
2019-01-11T11:12:42.463Z,47.10
2019-01-11T11:15:11.418Z,46.90
2019-01-11T11:17:38.735Z,46.70
2019-01-11T11:20:07.054Z,46.60
2019-01-11T11:22:34.454Z,46.90
2019-01-11T11:25:02.177Z,46.60
2019-01-11T11:27:29.454Z,46.70
2019-01-11T11:29:56.607Z,46.60
2019-01-11T11:32:42.414Z,46.70
2019-01-11T11:35:09.653Z,46.70
2019-01-11T11:37:36.906Z,46.80
2019-01-11T11:40:04.246Z,47.10
2019-01-11T11:42:31.507Z,47.30
2019-01-11T11:44:58.846Z,47.50
2019-01-11T11:47:26.093Z,47.70
2019-01-11T11:49:53.286Z,47.60
2019-01-11T11:52:20.410Z,47.60
2019-01-11T11:54:47.570Z,47.60
2019-01-11T11:57:14.720Z,47.70
2019-01-11T11:59:42.073Z,47.60
2019-01-11T12:02:09.218Z,47.40
2019-01-11T12:04:36.479Z,47.30
2019-01-11T12:07:07.623Z,47.30
2019-01-11T12:09:32.881Z,47.40
2019-01-11T12:12:00.154Z,47.20
2019-01-11T12:14:27.271Z,47.20
2019-01-11T12:16:54.416Z,47.00
2019-01-11T12:19:21.561Z,47.00
2019-01-11T12:21:48.793Z,47.20
2019-01-11T12:24:16.042Z,47.20
2019-01-11T12:26:43.323Z,47.30
2019-01-11T12:29:10.878Z,47.40
2019-01-11T12:31:38.127Z,47.20
2019-01-11T12:34:05.277Z,47.30
2019-01-11T12:36:32.613Z,47.30
2019-01-11T12:38:59.860Z,47.50
2019-01-11T12:41:27.139Z,47.50
2019-01-11T12:43:54.477Z,47.60
2019-01-11T12:46:21.729Z,47.70
2019-01-11T12:48:49.009Z,47.90
2019-01-11T12:51:16.322Z,48.10
2019-01-11T12:53:43.649Z,48.50
2019-01-11T12:56:11.282Z,48.80
2019-01-11T12:58:38.548Z,48.80
2019-01-11T13:01:05.869Z,48.80
2019-01-11T13:03:33.248Z,49.30
2019-01-11T13:06:00.534Z,49.50
2019-01-11T13:08:27.794Z,50.10
2019-01-11T13:10:55.063Z,49.70
2019-01-11T13:13:22.328Z,49.60
2019-01-11T13:15:49.610Z,49.80
2019-01-11T13:18:16.868Z,49.80
2019-01-11T13:20:44.120Z,50.00
2019-01-11T13:23:13.054Z,50.20
2019-01-11T13:25:40.322Z,50.30
2019-01-11T13:28:07.488Z,50.30
2019-01-11T13:30:35.064Z,50.30
2019-01-11T13:33:04.486Z,50.30
2019-01-11T13:35:31.762Z,50.40
2019-01-11T13:37:58.914Z,50.40
2019-01-11T13:40:26.146Z,50.50
2019-01-11T13:42:53.704Z,50.80
2019-01-11T13:45:22.419Z,50.60
2019-01-11T13:47:49.960Z,50.60
2019-01-11T13:50:44.818Z,50.80
2019-01-11T13:53:13.782Z,50.80
2019-01-11T13:55:40.917Z,51.00
2019-01-11T13:58:08.068Z,51.00
2019-01-11T14:00:35.314Z,51.00
2019-01-11T14:03:02.453Z,51.10
2019-01-11T14:05:29.736Z,51.20
2019-01-11T14:07:56.961Z,51.50
2019-01-11T14:10:24.230Z,51.60
2019-01-11T14:12:51.555Z,51.50
2019-01-11T14:15:18.811Z,51.50
2019-01-11T14:17:45.967Z,51.50
2019-01-11T14:20:13.322Z,51.50
2019-01-11T14:22:40.573Z,51.50
2019-01-11T14:25:08.343Z,51.50
2019-01-11T14:27:35.590Z,51.50
2019-01-11T14:30:03.638Z,51.70
2019-01-11T14:32:30.914Z,51.90
2019-01-11T14:34:58.210Z,51.80
2019-01-11T14:37:25.542Z,52.60
2019-01-11T14:39:52.828Z,51.90
2019-01-11T14:42:20.223Z,52.00
2019-01-11T14:44:47.458Z,51.90
2019-01-11T14:47:14.725Z,52.10
2019-01-11T14:49:41.954Z,52.50
2019-01-11T14:52:09.118Z,54.00
2019-01-11T14:54:36.356Z,52.70
2019-01-11T14:57:03.821Z,52.60
2019-01-11T14:59:31.085Z,52.50
2019-01-11T15:01:58.308Z,52.60
2019-01-11T15:04:25.557Z,52.80
2019-01-11T15:06:52.931Z,52.90
2019-01-11T15:09:20.065Z,52.90
2019-01-11T15:11:47.318Z,53.70
2019-01-11T15:14:14.655Z,53.10
2019-01-11T15:16:41.906Z,53.30
2019-01-11T15:19:14.066Z,53.30
2019-01-11T15:21:38.207Z,53.30
2019-01-11T15:24:05.453Z,53.40
2019-01-11T15:26:32.687Z,54.90
2019-01-11T15:28:59.939Z,53.60
2019-01-11T15:31:27.178Z,53.60
2019-01-11T15:33:54.439Z,53.80
2019-01-11T15:36:23.124Z,54.00
2019-01-11T15:38:50.501Z,53.90
2019-01-11T15:41:17.746Z,54.00
2019-01-11T15:43:44.989Z,53.70
2019-01-11T15:46:15.202Z,53.90
2019-01-11T15:48:48.944Z,54.00
2019-01-11T15:51:21.715Z,54.10
2019-01-11T15:53:48.975Z,54.20
2019-01-11T15:56:22.066Z,54.40
2019-01-11T15:58:49.325Z,54.40
2019-01-11T16:01:16.468Z,54.40
2019-01-11T16:03:43.741Z,54.80
2019-01-11T16:06:28.036Z,54.80
2019-01-11T16:09:55.532Z,55.00
2019-01-11T16:12:30.734Z,54.90
2019-01-11T16:15:28.145Z,55.10
2019-01-11T16:17:57.432Z,55.40
2019-01-11T16:20:24.584Z,55.60
2019-01-11T16:22:51.769Z,56.10
2019-01-11T16:25:19.072Z,56.20
2019-01-11T16:27:46.520Z,56.30
2019-01-11T16:30:13.805Z,56.60
2019-01-11T16:32:41.044Z,57.10
2019-01-11T16:35:08.219Z,56.60
2019-01-11T16:37:35.454Z,56.30
2019-01-11T16:40:03.445Z,56.30
2019-01-11T16:42:30.695Z,56.20
2019-01-11T16:44:57.896Z,56.20
2019-01-11T16:47:25.134Z,56.20
2019-01-11T16:49:52.406Z,56.00
2019-01-11T16:52:19.577Z,56.10
2019-01-11T16:54:46.845Z,56.30
2019-01-11T16:57:14.094Z,56.40
2019-01-11T16:59:41.380Z,56.50
2019-01-11T17:02:08.740Z,56.60
2019-01-11T17:04:36.002Z,56.90
2019-01-11T17:07:03.165Z,56.90
2019-01-11T17:09:30.501Z,57.00
2019-01-11T17:11:57.768Z,57.30
2019-01-11T17:14:25.020Z,57.60
2019-01-11T17:16:52.396Z,57.40
2019-01-11T17:19:19.530Z,57.30
2019-01-11T17:21:46.796Z,57.30
2019-01-11T17:24:14.031Z,57.20
2019-01-11T17:26:41.235Z,56.80
2019-01-11T17:29:08.516Z,57.40
2019-01-11T17:31:35.770Z,58.20
2019-01-11T17:34:03.156Z,57.60
2019-01-11T17:36:30.544Z,57.40
2019-01-11T17:38:57.924Z,57.40
2019-01-11T17:41:25.198Z,57.70
2019-01-11T17:43:52.541Z,57.70
2019-01-11T17:46:19.914Z,57.90
2019-01-11T17:48:47.342Z,58.00
2019-01-11T17:51:14.839Z,58.10
2019-01-11T17:53:43.593Z,58.00
2019-01-11T17:56:10.933Z,58.10
2019-01-11T17:58:38.421Z,58.20
2019-01-11T18:01:05.958Z,57.20
2019-01-11T18:03:33.495Z,58.40
2019-01-11T18:06:00.863Z,58.40
2019-01-11T18:08:28.168Z,58.60
2019-01-11T18:10:55.491Z,58.40
2019-01-11T18:13:43.761Z,58.40
2019-01-11T18:16:11.059Z,58.40
2019-01-11T18:18:40.007Z,58.20
2019-01-11T18:21:07.340Z,58.40
2019-01-11T18:23:34.697Z,58.70
2019-01-11T18:26:01.926Z,58.80
2019-01-11T18:28:29.185Z,58.90
2019-01-11T18:30:56.443Z,58.80
2019-01-11T18:33:23.719Z,58.90
2019-01-11T18:35:51.002Z,59.10
2019-01-11T18:38:18.376Z,58.80
2019-01-11T18:40:45.673Z,58.60
2019-01-11T18:43:15.059Z,58.80
2019-01-11T18:45:42.410Z,58.90
2019-01-11T18:48:09.677Z,58.90
2019-01-11T18:50:36.959Z,59.10
2019-01-11T18:53:13.499Z,59.00
2019-01-11T18:55:36.361Z,58.20
2019-01-11T18:58:06.189Z,58.80
2019-01-11T19:00:33.439Z,58.80
2019-01-11T19:03:00.707Z,59.10
2019-01-11T19:05:30.800Z,59.20
2019-01-11T19:07:58.199Z,59.20
2019-01-11T19:10:25.543Z,58.60
2019-01-11T19:12:54.561Z,59.80
2019-01-11T19:15:26.997Z,59.50
2019-01-11T19:17:54.726Z,59.60
2019-01-11T19:20:24.397Z,59.70
2019-01-11T19:22:51.987Z,59.70
2019-01-11T19:25:19.591Z,59.80
2019-01-11T19:27:47.471Z,59.70
2019-01-11T19:30:17.387Z,60.10
2019-01-11T19:32:44.736Z,60.10
2019-01-11T19:35:12.130Z,60.10
2019-01-11T19:37:42.674Z,60.40
2019-01-11T19:40:16.004Z,62.70
2019-01-11T19:42:48.037Z,60.10
2019-01-11T19:45:19.379Z,61.00
2019-01-11T19:48:47.842Z,61.10
2019-01-11T19:51:15.246Z,61.00
2019-01-11T19:53:44.643Z,60.40
2019-01-11T19:56:12.069Z,62.60
2019-01-11T19:58:39.318Z,61.20
2019-01-11T20:01:06.526Z,61.30
2019-01-11T20:03:33.965Z,61.40
2019-01-11T20:06:01.214Z,61.40
2019-01-11T20:08:28.540Z,61.70
2019-01-11T20:10:55.811Z,61.20
2019-01-11T20:13:23.114Z,61.90
2019-01-11T20:15:50.407Z,61.70
2019-01-11T20:18:17.808Z,61.70
2019-01-11T20:20:45.088Z,62.60
2019-01-11T20:23:12.360Z,62.00
2019-01-11T20:25:39.647Z,61.00
2019-01-11T20:28:06.920Z,62.00
2019-01-11T20:30:34.212Z,62.00
2019-01-11T20:33:01.496Z,61.00
2019-01-11T20:35:28.864Z,62.00
2019-01-11T20:37:56.142Z,61.80
2019-01-11T20:40:23.766Z,61.80
2019-01-11T20:42:51.044Z,62.00
2019-01-11T20:45:19.980Z,61.90
2019-01-11T20:47:47.664Z,62.00
2019-01-11T20:50:16.788Z,61.80
2019-01-11T20:52:49.404Z,61.70
2019-01-11T20:56:03.552Z,62.50
2019-01-11T20:57:59.435Z,61.70
2019-01-11T21:00:39.221Z,61.10
2019-01-11T21:03:08.432Z,62.00
2019-01-11T21:05:35.837Z,61.00
2019-01-11T21:08:05.072Z,61.80
2019-01-11T21:10:34.235Z,61.50
2019-01-11T21:13:01.604Z,61.50
2019-01-11T21:15:28.972Z,61.70
2019-01-11T21:17:56.251Z,62.10
2019-01-11T21:20:26.349Z,62.10
2019-01-11T21:22:53.885Z,61.30
2019-01-11T21:25:21.132Z,62.20
2019-01-11T21:27:48.611Z,62.20
2019-01-11T21:30:21.221Z,62.20
2019-01-11T21:32:48.606Z,62.00
2019-01-11T21:35:15.758Z,61.90
2019-01-11T21:37:44.049Z,62.40
2019-01-11T21:40:13.825Z,62.20
2019-01-11T21:42:41.179Z,62.20
2019-01-11T21:45:08.997Z,62.10
2019-01-11T21:47:36.349Z,62.50
2019-01-11T21:50:06.216Z,62.20
2019-01-11T21:52:33.555Z,62.40
2019-01-11T21:55:00.852Z,62.60
2019-01-11T21:57:28.191Z,62.80
2019-01-11T21:59:55.540Z,62.70
2019-01-11T22:02:22.915Z,62.50
2019-01-11T22:04:50.242Z,62.60
2019-01-11T22:07:17.496Z,62.40
2019-01-11T22:09:44.818Z,62.10
2019-01-11T22:12:12.090Z,62.00
2019-01-11T22:14:39.441Z,62.50
2019-01-11T22:17:06.827Z,62.40
2019-01-11T22:19:34.094Z,62.50
2019-01-11T22:22:01.259Z,62.60
2019-01-11T22:24:28.521Z,63.10
2019-01-11T22:26:55.811Z,62.40
2019-01-11T22:29:23.083Z,62.30
2019-01-11T22:31:50.369Z,62.10
2019-01-11T22:34:17.517Z,62.10
2019-01-11T22:36:44.673Z,62.00
2019-01-11T22:39:12.052Z,61.70
2019-01-11T22:41:39.424Z,61.70
2019-01-11T22:44:06.723Z,61.70
2019-01-11T22:46:33.957Z,61.50
2019-01-11T22:49:01.214Z,61.40
2019-01-11T22:51:28.468Z,61.20
2019-01-11T22:53:55.626Z,61.00
2019-01-11T22:56:22.865Z,61.00
2019-01-11T22:58:50.030Z,61.00
2019-01-11T23:02:00.196Z,60.90
2019-01-11T23:04:27.484Z,60.90
2019-01-11T23:07:33.574Z,60.50
2019-01-11T23:10:27.966Z,60.60
2019-01-11T23:13:04.275Z,60.50
2019-01-11T23:15:37.092Z,60.60
2019-01-11T23:18:12.587Z,60.70
2019-01-11T23:20:39.971Z,60.70
2019-01-11T23:23:07.244Z,59.90
2019-01-11T23:25:34.506Z,60.60
2019-01-11T23:28:01.860Z,60.60
2019-01-11T23:30:29.138Z,60.60
2019-01-11T23:32:56.296Z,60.80
2019-01-11T23:35:23.541Z,60.70
2019-01-11T23:37:50.770Z,60.70
2019-01-11T23:40:17.929Z,61.00
2019-01-11T23:42:45.164Z,61.10
2019-01-11T23:45:12.434Z,60.80
2019-01-11T23:47:39.566Z,61.00
2019-01-11T23:50:09.775Z,61.00
2019-01-11T23:52:37.013Z,61.00
2019-01-11T23:55:05.366Z,63.60
2019-01-11T23:57:32.533Z,61.00
2019-01-11T23:59:59.785Z,61.20
